Dades meteomassalio
Diari Summary for Juliol 22, 2017 Units:  Metric    English   Both
« Previous Day
Next Day »
Diari Semanal Mensual Anual Personalitzat
  Maxima: Minima: Mijana:
Temperatura: -17.8 °C -7.2 °C -4.1 °C
Rosada: -17.8 °C -8.3 °C -7.1 °C
Humitat: Humidity % 51 % 73 %
Velocitat del vent: 0 km/h 0 km/h 12.4 km/h
Racha vent: 0 km/h - -
Vent:- - SE
Pressio: 0 hPa 34222.3 hPa -
Pluja: 33.02 mm    
Historical Graphs
 
 
Tabular Data for Juliol 22, 2017
Time Temperature Dew Point Pressure Wind Wind Speed Wind Gust Humidity Rainfall Rate (Hourly) solar Conditions
-17.8 °C -17.8 °C 0 hPa Calm     Humidity % 0 mm SolarRadiationWatts/m^2 W/m2 Conditions
00:00 -5.3 °C -7.6 °C 34222.3 hPa SSE 17.9 km/h 17.9 km/h 78 % 0 mm 0.0 W/m2 RA
00:05 -5.3 °C -7.6 °C 34222.3 hPa SE 15 km/h 15 km/h 78 % 0 mm 0.0 W/m2 CLR
00:10 -5.3 °C -7.6 °C 34222.3 hPa East 11.9 km/h 11.9 km/h 78 % 0 mm 0.0 W/m2 CLR
00:15 -5.3 °C -7.6 °C 34222.3 hPa Calm     78 % 0 mm 0.0 W/m2 CLR
00:20 -5.4 °C -7.6 °C 34222.3 hPa Calm     79 % 0 mm 0.0 W/m2 CLR
00:25 -5.5 °C -7.6 °C 34222.3 hPa Calm     79 % 0 mm 0.0 W/m2 CLR
00:30 -5.5 °C -7.6 °C 34235.8 hPa Calm     80 % 0 mm 0.0 W/m2 CLR
00:36 -5.6 °C -7.6 °C 34235.8 hPa Calm     80 % 0 mm 0.0 W/m2 CLR
00:41 -5.7 °C -7.6 °C 34235.8 hPa Calm     81 % 0 mm 0.0 W/m2 CLR
00:46 -5.8 °C -7.6 °C 34235.8 hPa NE 3.1 km/h   82 % 0 mm 0.0 W/m2 CLR
00:51 -5.9 °C -7.7 °C 34235.8 hPa Calm     82 % 0 mm 0.0 W/m2 CLR
00:56 -5.9 °C -7.6 °C 34235.8 hPa Calm     83 % 0 mm 0.0 W/m2 CLR
01:01 -5.9 °C -7.6 °C 34222.3 hPa Calm     83 % 0 mm 0.0 W/m2 CLR
01:06 -6 °C -7.7 °C 34222.3 hPa Calm     83 % 0 mm 0.0 W/m2 CLR
01:11 -6.1 °C -7.7 °C 34222.3 hPa Calm     83 % 0 mm 0.0 W/m2 CLR
01:16 -6.1 °C -7.7 °C 34235.8 hPa Calm     84 % 0 mm 0.0 W/m2 CLR
01:21 -6.1 °C -7.7 °C 34235.8 hPa Calm   0.3 km/h 84 % 0 mm 0.0 W/m2 CLR
01:26 -6.1 °C -7.6 °C 34235.8 hPa Calm     84 % 0 mm 0.0 W/m2 CLR
01:31 -5.9 °C -7.5 °C 34235.8 hPa ESE 11.9 km/h 11.9 km/h 84 % 0 mm 0.0 W/m2 CLR
01:36 -5.9 °C -7.6 °C 34235.8 hPa Calm     83 % 0 mm 0.0 W/m2 CLR
01:41 -5.9 °C -7.6 °C 34222.3 hPa Calm     83 % 0 mm 0.0 W/m2 CLR
01:46 -5.9 °C -7.6 °C 34222.3 hPa Calm     83 % 0 mm 0.0 W/m2 CLR
01:51 -5.9 °C -7.6 °C 34222.3 hPa Calm     83 % 0 mm 0.0 W/m2 CLR
01:57 -6.1 °C -7.6 °C 34222.3 hPa Calm     84 % 0 mm 0.0 W/m2 CLR
02:02 -6.1 °C -7.6 °C 34222.3 hPa Calm     85 % 0 mm 0.0 W/m2 CLR
02:07 -6.1 °C -7.6 °C 34222.3 hPa Calm     85 % 0 mm 0.0 W/m2 CLR
02:12 -6.2 °C -7.6 °C 34222.3 hPa Calm     85 % 0 mm 0.0 W/m2 CLR
02:17 -6.2 °C -7.7 °C 34222.3 hPa Calm     85 % 0 mm 0.0 W/m2 CLR
02:22 -6.3 °C -7.7 °C 34222.3 hPa Calm     85 % 0 mm 0.0 W/m2 CLR
02:27 -6.3 °C -7.7 °C 34222.3 hPa Calm     86 % 0 mm 0.0 W/m2 CLR
02:32 -6.4 °C -7.7 °C 34222.3 hPa Calm     86 % 0 mm 0.0 W/m2 CLR
02:37 -6.4 °C -7.7 °C 34235.8 hPa Calm     87 % 0 mm 0.0 W/m2 CLR
02:42 -6.4 °C -7.6 °C 34235.8 hPa Calm     88 % 0 mm 0.0 W/m2 CLR
02:47 -6.4 °C -7.6 °C 34235.8 hPa Calm     88 % 0 mm 0.0 W/m2 CLR
02:53 -6.5 °C -7.7 °C 34235.8 hPa Calm     87 % 0 mm 0.0 W/m2 CLR
02:58 -6.6 °C -7.8 °C 34235.8 hPa Calm     87 % 0 mm 0.0 W/m2 CLR
03:03 -6.6 °C -7.7 °C 34235.8 hPa Calm     88 % 0 mm 0.0 W/m2 CLR
03:08 -6.6 °C -7.8 °C 34235.8 hPa Calm     88 % 0 mm 0.0 W/m2 CLR
03:13 -6.7 °C -7.8 °C 34235.8 hPa Calm     88 % 0 mm 0.0 W/m2 CLR
03:18 -6.7 °C -7.9 °C 34235.8 hPa Calm     88 % 0 mm 0.0 W/m2 CLR
03:23 -6.8 °C -7.9 °C 34235.8 hPa Calm     88 % 0 mm 0.0 W/m2 CLR
03:28 -6.8 °C -7.9 °C 34235.8 hPa Calm     89 % 0 mm 0.0 W/m2 CLR
03:33 -6.9 °C -7.9 °C 34246 hPa Calm     89 % 0 mm 0.0 W/m2 CLR
03:38 -6.9 °C -8 °C 34246 hPa Calm     89 % 0 mm 0.0 W/m2 CLR
03:43 -6.9 °C -8 °C 34246 hPa Calm     89 % 0 mm 0.0 W/m2 CLR
03:48 -7 °C -7.9 °C 34246 hPa Calm     90 % 0 mm 0.0 W/m2 CLR
03:53 -7 °C -7.9 °C 34246 hPa Calm     90 % 0 mm 0.0 W/m2 CLR
03:58 -7.1 °C -7.9 °C 34246 hPa Calm     90 % 0 mm 0.0 W/m2 CLR
04:03 -7.1 °C -8 °C 34246 hPa Calm     90 % 0 mm 0.0 W/m2 CLR
04:08 -7.2 °C -8.1 °C 34246 hPa Calm     90 % 0 mm 0.0 W/m2 CLR
04:13 -7.2 °C -8.1 °C 34246 hPa West 9 km/h 9 km/h 90 % 0 mm 0.0 W/m2 CLR
04:18 -7.2 °C -8.1 °C 34256.2 hPa West 5.1 km/h 5.1 km/h 90 % 0 mm 0.0 W/m2 CLR
04:23 -7.2 °C -8 °C 34256.2 hPa WSW 20.8 km/h 20.8 km/h 91 % 0 mm 0.0 W/m2 CLR
04:28 -7.1 °C -8.1 °C 34256.2 hPa WSW 20.9 km/h 20.9 km/h 90 % 0 mm 0.0 W/m2 CLR
04:33 -7.1 °C -8.1 °C 34256.2 hPa SW 15.6 km/h 15.6 km/h 90 % 0 mm 0.0 W/m2 CLR
04:38 -7.1 °C -8.1 °C 34256.2 hPa WSW 15 km/h 15 km/h 90 % 0 mm 0.0 W/m2 CLR
04:43 -7.1 °C -8 °C 34256.2 hPa WSW 6 km/h   90 % 0 mm 0.0 W/m2 CLR
04:48 -7.1 °C -8.2 °C 34256.2 hPa West 12.9 km/h 12.9 km/h 89 % 0 mm 0.0 W/m2 CLR
04:53 -7.1 °C -8.1 °C 34256.2 hPa WSW 17.9 km/h 17.9 km/h 89 % 0 mm 0.0 W/m2 CLR
04:58 -6.9 °C -7.9 °C 34256.2 hPa WSW 20.9 km/h 20.9 km/h 89 % 0 mm 0.0 W/m2 CLR
05:03 -6.8 °C -7.9 °C 34256.2 hPa WSW 20.9 km/h 20.9 km/h 89 % 0 mm 0.0 W/m2 CLR
05:08 -6.8 °C -7.9 °C 34256.2 hPa WSW 20.9 km/h 20.9 km/h 89 % 0 mm 0.0 W/m2 CLR
05:13 -6.8 °C -7.9 °C 34256.2 hPa West 17.9 km/h 17.9 km/h 88 % 0 mm 0.0 W/m2 CLR
05:18 -6.8 °C -7.9 °C 34256.2 hPa WSW 12.9 km/h 12.9 km/h 88 % 0 mm 0.0 W/m2 CLR
05:23 -6.8 °C -7.9 °C 34269.7 hPa WSW 15 km/h 15 km/h 88 % 0 mm 0.0 W/m2 CLR
05:28 -6.8 °C -7.9 °C 34269.7 hPa WSW 20.9 km/h 20.9 km/h 89 % 0 mm 0.0 W/m2 CLR
05:29 -6.8 °C -7.9 °C 34269.7 hPa WSW 20.9 km/h 20.9 km/h 89 % 0 mm 0.0 W/m2 CLR
05:34 -6.8 °C -7.9 °C 34269.7 hPa West 23.8 km/h 23.8 km/h 89 % 0 mm 0.0 W/m2 CLR
05:39 -6.8 °C -7.8 °C 34269.7 hPa WSW 23.3 km/h 23.3 km/h 89 % 0 mm 0.0 W/m2 CLR
05:44 -6.8 °C -7.9 °C 34269.7 hPa WSW 26.9 km/h 26.9 km/h 88 % 0 mm 0.0 W/m2 CLR
05:49 -6.8 °C -7.9 °C 34279.9 hPa WSW 23.8 km/h 23.8 km/h 88 % 0 mm 0.0 W/m2 CLR
05:54 -6.8 °C -7.9 °C 34279.9 hPa WSW 17.9 km/h 17.9 km/h 88 % 0 mm 0.0 W/m2 CLR
05:59 -6.8 °C -7.9 °C 34279.9 hPa WSW 15 km/h 15 km/h 88 % 0 mm 0.0 W/m2 CLR
06:04 -6.7 °C -7.9 °C 34279.9 hPa Calm   6.8 km/h 88 % 0 mm 0.0 W/m2 CLR
06:09 -6.7 °C -7.8 °C 34279.9 hPa WSW 12.9 km/h 12.9 km/h 88 % 0 mm 0.0 W/m2 CLR
06:14 -6.7 °C -7.8 °C 34279.9 hPa Calm     88 % 0 mm 0.0 W/m2 CLR
06:19 -6.7 °C -7.8 °C 34293.4 hPa Calm     88 % 0 mm 0.0 W/m2 CLR
06:24 -6.7 °C -7.8 °C 34293.4 hPa WSW 9 km/h 9 km/h 88 % 0 mm 0.0 W/m2 CLR
06:29 -6.7 °C -7.8 °C 34293.4 hPa West 20.9 km/h 20.9 km/h 88 % 0 mm 0.0 W/m2 CLR
06:34 -6.6 °C -7.9 °C 34293.4 hPa WSW 11.9 km/h 11.9 km/h 87 % 0 mm 0.0 W/m2 CLR
06:39 -6.6 °C -7.9 °C 34293.4 hPa SW 9 km/h 9 km/h 87 % 0 mm 0.0 W/m2 OVC
06:44 -6.6 °C -7.9 °C 34293.4 hPa WSW 20.9 km/h 20.9 km/h 87 % 0 mm 0.0 W/m2 OVC
06:49 -6.7 °C -8 °C 34293.4 hPa WSW 11.9 km/h 11.9 km/h 86 % 0 mm 5.0 W/m2 OVC
06:54 -6.7 °C -8.1 °C 34293.4 hPa WSW 9 km/h 9 km/h 86 % 0 mm 9.0 W/m2 BKN
06:59 -6.8 °C -8.1 °C 34293.4 hPa West 9 km/h 9 km/h 86 % 0 mm 16.0 W/m2 BKN
07:04 -6.8 °C -8.1 °C 34293.4 hPa Calm     86 % 0 mm 21.0 W/m2 BKN
07:09 -6.8 °C -8.2 °C 34293.4 hPa Calm     86 % 0 mm 25.0 W/m2 BKN
07:14 -6.8 °C -8.2 °C 34303.6 hPa Calm     86 % 0 mm 28.0 W/m2 BKN
07:19 -6.9 °C -8.2 °C 34303.6 hPa Calm     86 % 0 mm 21.0 W/m2 BKN
07:24 -6.9 °C -8.2 °C 34303.6 hPa Calm     86 % 0 mm 26.0 W/m2 BKN
07:29 -6.9 °C -8.2 °C 34303.6 hPa Calm     86 % 0 mm 30.0 W/m2 BKN
07:34 -6.9 °C -8.2 °C 34303.6 hPa Calm     86 % 0 mm 32.0 W/m2 BKN
07:39 -6.9 °C -8.3 °C 34303.6 hPa Calm     86 % 0 mm 40.0 W/m2 BKN
07:44 -6.9 °C -8.2 °C 34303.6 hPa Calm     86 % 0 mm 58.0 W/m2 SCT
07:49 -6.9 °C -8.2 °C 34303.6 hPa Calm     86 % 0 mm 102.0 W/m2 SCT
07:54 -6.9 °C -8.2 °C 34313.7 hPa Calm     86 % 0 mm 121.0 W/m2 FEW
07:59 -6.8 °C -8.3 °C 34313.7 hPa Calm     85 % 0 mm 137.0 W/m2 CLR
08:04 -6.7 °C -8.2 °C 34313.7 hPa Calm     85 % 0 mm 137.0 W/m2 CLR
08:09 -6.6 °C -8.3 °C 34313.7 hPa Calm     83 % 0 mm 169.0 W/m2 CLR
08:14 -6.4 °C -8.1 °C 34313.7 hPa Calm     83 % 0 mm 165.0 W/m2 CLR
08:19 -6.3 °C -8.2 °C 34313.7 hPa Calm     81 % 0 mm 104.0 W/m2 CLR
08:24 -6.2 °C -8.1 °C 34313.7 hPa Calm     81 % 0 mm 199.0 W/m2 CLR
08:29 -6.1 °C -7.9 °C 34327.3 hPa Calm     81 % 0 mm 216.0 W/m2 CLR
08:34 -5.9 °C -7.9 °C 34313.7 hPa Calm     80 % 0 mm 234.0 W/m2 CLR
08:39 -5.8 °C -8.1 °C 34313.7 hPa Calm     78 % 0 mm 248.0 W/m2 CLR
08:44 -5.8 °C -7.9 °C 34327.3 hPa Calm     79 % 0 mm 262.0 W/m2 CLR
08:49 -5.7 °C -7.9 °C 34327.3 hPa Calm   0.3 km/h 78 % 0 mm 283.0 W/m2 CLR
08:54 -5.6 °C -7.9 °C 34327.3 hPa Calm     77 % 0 mm 299.0 W/m2 CLR
08:59 -5.5 °C -7.8 °C 34327.3 hPa Calm     77 % 0 mm 311.0 W/m2 CLR
09:04 -5.3 °C -7.8 °C 34327.3 hPa Calm     76 % 0 mm 332.0 W/m2 CLR
09:09 -5.3 °C -7.9 °C 34327.3 hPa Calm     75 % 0 mm 353.0 W/m2 CLR
09:14 -5.3 °C -7.9 °C 34327.3 hPa Calm     75 % 0 mm 374.0 W/m2 CLR
09:19 -5.2 °C -7.8 °C 34327.3 hPa Calm     75 % 0 mm 394.0 W/m2 CLR
09:24 -5.1 °C -7.7 °C 34327.3 hPa Calm     75 % 0 mm 415.0 W/m2 CLR
09:29 -4.9 °C -7.8 °C 34327.3 hPa Calm     73 % 0 mm 439.0 W/m2 CLR
09:34 -4.9 °C -7.8 °C 34327.3 hPa Calm     72 % 0 mm 466.0 W/m2 CLR
09:39 -4.7 °C -7.6 °C 34327.3 hPa Calm     73 % 0 mm 497.0 W/m2 CLR
09:44 -4.6 °C -7.7 °C 34327.3 hPa Calm     71 % 0 mm 513.0 W/m2 CLR
09:49 -4.5 °C -7.6 °C 34327.3 hPa Calm     71 % 0 mm 536.0 W/m2 CLR
09:54 -4.3 °C -7.4 °C 34327.3 hPa Calm     71 % 0 mm 543.0 W/m2 CLR
09:59 -4.2 °C -7.4 °C 34327.3 hPa Calm     70 % 0 mm 563.0 W/m2 CLR
10:04 -4.1 °C -7.4 °C 34327.3 hPa NNW 3.1 km/h   69 % 0 mm 578.0 W/m2 CLR
10:09 -4.1 °C -7.5 °C 34327.3 hPa Calm     69 % 0 mm 615.0 W/m2 CLR
10:14 -4.1 °C -7.4 °C 34327.3 hPa Calm     69 % 0 mm 575.0 W/m2 CLR
10:19 -3.8 °C -7.4 °C 34327.3 hPa NNE 3.1 km/h   67 % 0 mm 599.0 W/m2 CLR
10:24 -3.7 °C -7.3 °C 34327.3 hPa NE 3.1 km/h 3.1 km/h 68 % 0 mm 490.0 W/m2 CLR
10:29 -3.7 °C -7.3 °C 34327.3 hPa ENE 9 km/h 9 km/h 67 % 0 mm 638.0 W/m2 CLR
10:34 -3.6 °C -7.3 °C 34327.3 hPa ENE 3.1 km/h 3.1 km/h 66 % 0 mm 471.0 W/m2 CLR
10:39 -3.7 °C -7.5 °C 34327.3 hPa Calm     66 % 0 mm 798.0 W/m2 CLR
10:44 -3.8 °C -7.4 °C 34313.7 hPa ENE 15 km/h 15 km/h 67 % 0 mm 733.0 W/m2 CLR
10:49 -3.8 °C -7.3 °C 34327.3 hPa NNE 3.1 km/h   68 % 0 mm 677.0 W/m2 CLR
10:55 -3.7 °C -7.4 °C 34313.7 hPa ENE 6 km/h   67 % 0 mm 374.0 W/m2 CLR
11:00 -3.6 °C -7.3 °C 34313.7 hPa NE 9 km/h   67 % 0 mm 715.0 W/m2 CLR
11:05 -3.4 °C -7.3 °C 34313.7 hPa NNE 3.1 km/h   65 % 0 mm 411.0 W/m2 CLR
11:10 -3.4 °C -7.4 °C 34313.7 hPa NE 15 km/h 15 km/h 65 % 0 mm 264.0 W/m2 CLR
11:15 -3.6 °C -7.5 °C 34327.3 hPa Calm     65 % 0 mm 221.0 W/m2 CLR
11:20 -3.7 °C -7.4 °C 34327.3 hPa Calm     66 % 0 mm 234.0 W/m2 CLR
11:25 -3.7 °C -7.2 °C 34313.7 hPa NE 7.7 km/h 7.7 km/h 68 % 0 mm 329.0 W/m2 CLR
11:30 -3.6 °C -7.3 °C 34313.7 hPa ENE 6 km/h   66 % 0 mm 809.0 W/m2 CLR
11:35 -3.6 °C -7.3 °C 34327.3 hPa East 6 km/h   66 % 0 mm 371.0 W/m2 CLR
11:40 -3.6 °C -7.3 °C 34327.3 hPa NE 18.2 km/h 18.2 km/h 66 % 0 mm 239.0 W/m2 CLR
11:45 -3.5 °C -7.2 °C 34327.3 hPa ENE 20.9 km/h 20.9 km/h 67 % 0 mm 788.0 W/m2 CLR
11:50 -3.3 °C -7.3 °C 34327.3 hPa NE 15 km/h 15 km/h 65 % 0 mm 775.0 W/m2 CLR
11:55 -3.2 °C -7.4 °C 34327.3 hPa NE 11.9 km/h 11.9 km/h 63 % 0 mm 779.0 W/m2 CLR
12:00 -3 °C -7.3 °C 34327.3 hPa ENE 23.8 km/h 23.8 km/h 63 % 0 mm 789.0 W/m2 CLR
12:05 -2.9 °C -7.1 °C 34313.7 hPa NNE 15 km/h 15 km/h 63 % 0 mm 789.0 W/m2 CLR
12:10 -2.8 °C -7.2 °C 34313.7 hPa NNE 15 km/h   62 % 0 mm 805.0 W/m2 CLR
12:15 -2.7 °C -7.4 °C 34313.7 hPa East 23.8 km/h 23.8 km/h 60 % 0 mm 812.0 W/m2 CLR
12:20 -2.7 °C -7.2 °C 34313.7 hPa East 20.9 km/h 20.9 km/h 61 % 0 mm 816.0 W/m2 CLR
12:25 -2.6 °C -7.3 °C 34313.7 hPa ESE 23.8 km/h 23.8 km/h 60 % 0 mm 821.0 W/m2 CLR
12:30 -2.4 °C -7.1 °C 34313.7 hPa East 11.9 km/h 11.9 km/h 60 % 0 mm 826.0 W/m2 CLR
12:35 -2.3 °C -7.2 °C 34313.7 hPa Calm     59 % 0 mm 831.0 W/m2 CLR
12:40 -2.1 °C -7 °C 34313.7 hPa SE 15.6 km/h 15.6 km/h 59 % 0 mm 837.0 W/m2 CLR
12:45 -2.1 °C -7.2 °C 34313.7 hPa ENE 11.9 km/h 11.9 km/h 58 % 0 mm 840.0 W/m2 CLR
12:50 -2.1 °C -6.8 °C 34303.6 hPa ENE 9 km/h 9 km/h 60 % 0 mm 847.0 W/m2 CLR
12:55 -1.8 °C -6.8 °C 34303.6 hPa ESE 20.9 km/h 20.9 km/h 58 % 0 mm 854.0 W/m2 CLR
13:00 -1.8 °C -7.1 °C 34303.6 hPa SE 11.9 km/h 11.9 km/h 57 % 0 mm 863.0 W/m2 CLR
13:05 -1.7 °C -6.8 °C 34303.6 hPa East 12.9 km/h 12.9 km/h 58 % 0 mm 867.0 W/m2 CLR
13:10 -1.7 °C -6.8 °C 34303.6 hPa ENE 23.3 km/h 23.3 km/h 58 % 0 mm 867.0 W/m2 CLR
13:15 -1.7 °C -6.6 °C 34293.4 hPa SE 17.9 km/h 17.9 km/h 59 % 0 mm 877.0 W/m2 CLR
13:20 -1.6 °C -6.7 °C 34293.4 hPa East 9 km/h 9 km/h 58 % 0 mm 882.0 W/m2 CLR
13:25 -1.5 °C -6.8 °C 34293.4 hPa ENE 9 km/h 9 km/h 56 % 0 mm 879.0 W/m2 CLR
13:30 -1.3 °C -6.6 °C 34279.9 hPa ENE 15 km/h 15 km/h 57 % 0 mm 886.0 W/m2 CLR
13:35 -1.2 °C -6.6 °C 34279.9 hPa SE 12.9 km/h 12.9 km/h 56 % 0 mm 911.0 W/m2 CLR
13:40 -1 °C -6.6 °C 34279.9 hPa ESE 20.9 km/h 20.9 km/h 55 % 0 mm 905.0 W/m2 CLR
13:45 -1.1 °C -6.7 °C 34279.9 hPa SE 11.9 km/h 11.9 km/h 55 % 0 mm 905.0 W/m2 CLR
13:50 -1 °C -6.6 °C 34279.9 hPa ENE 15 km/h 15 km/h 55 % 0 mm 916.0 W/m2 CLR
13:55 -0.8 °C -6.6 °C 34279.9 hPa ESE 9 km/h 9 km/h 54 % 0 mm 933.0 W/m2 CLR
14:00 -0.7 °C -6.8 °C 34269.7 hPa ESE 28.5 km/h 28.5 km/h 52 % 0 mm 926.0 W/m2 CLR
14:05 -0.6 °C -6.3 °C 34269.7 hPa ENE 7.7 km/h 7.7 km/h 54 % 0 mm 958.0 W/m2 CLR
14:10 -0.5 °C -6.8 °C 34269.7 hPa ESE 26.9 km/h 26.9 km/h 51 % 0 mm 958.0 W/m2 CLR
14:15 -0.7 °C -6.8 °C 34269.7 hPa SSW 3.1 km/h   52 % 0 mm 302.0 W/m2 CLR
14:20 -0.7 °C -6.8 °C 34256.2 hPa NE 23.8 km/h 23.8 km/h 52 % 0 mm 299.0 W/m2 CLR
14:25 -0.8 °C -6.9 °C 34269.7 hPa ENE 29.8 km/h 29.8 km/h 52 % 0 mm 250.0 W/m2 CLR
14:30 -0.8 °C -6.8 °C 34256.2 hPa ESE 29.8 km/h 29.8 km/h 53 % 0 mm 385.0 W/m2 CLR
14:35 -0.8 °C -6.7 °C 34256.2 hPa ESE 36.2 km/h 36.2 km/h 53 % 0 mm 1046.0 W/m2 CLR
14:40 -0.6 °C -6.6 °C 34256.2 hPa ESE 38.8 km/h 38.8 km/h 53 % 0 mm 997.0 W/m2 CLR
14:46 -0.8 °C -6.7 °C 34256.2 hPa ESE 41.7 km/h 41.7 km/h 53 % 0 mm 295.0 W/m2 CLR
14:51 -0.9 °C -6.7 °C 34246 hPa ENE 38.8 km/h 38.8 km/h 54 % 0 mm 322.0 W/m2 CLR
14:56 -1 °C -6.6 °C 34246 hPa ESE 38.8 km/h 38.8 km/h 55 % 0 mm 327.0 W/m2 CLR
15:01 -1 °C -6.6 °C 34246 hPa East 15 km/h 15 km/h 55 % 0 mm 297.0 W/m2 CLR
15:06 -0.9 °C -6.6 °C 34246 hPa ESE 23.8 km/h 23.8 km/h 54 % 0 mm 332.0 W/m2 CLR
15:11 -0.9 °C -6.8 °C 34246 hPa East 29.8 km/h 29.8 km/h 53 % 0 mm 258.0 W/m2 CLR
15:16 -0.9 °C -6.8 °C 34246 hPa East 53.6 km/h 53.6 km/h 53 % 0 mm 202.0 W/m2 CLR
15:21 -0.9 °C -7 °C 34246 hPa SE 11.9 km/h 11.9 km/h 52 % 0 mm 202.0 W/m2 CLR
15:26 -0.8 °C -6.9 °C 34235.8 hPa ESE 41.7 km/h 41.7 km/h 52 % 0 mm 178.0 W/m2 CLR
15:31 -1 °C -6.8 °C 34235.8 hPa SSE 50.7 km/h 50.7 km/h 54 % 0 mm 114.0 W/m2 CLR
15:36 -1.2 °C -6.6 °C 34235.8 hPa East 47.6 km/h 47.6 km/h 56 % 0 mm 165.0 W/m2 CLR
15:41 -1.3 °C -6.6 °C 34235.8 hPa ESE 50.7 km/h 50.7 km/h 57 % 0 mm 125.0 W/m2 CLR
15:46 -1.4 °C -6.5 °C 34235.8 hPa ESE 41.7 km/h 41.7 km/h 58 % 0 mm 153.0 W/m2 CLR
15:51 -1.5 °C -6.6 °C 34222.3 hPa ESE 38.8 km/h 38.8 km/h 58 % 0 mm 258.0 W/m2 CLR
15:56 -1.5 °C -6.6 °C 34235.8 hPa ESE 35.7 km/h 35.7 km/h 58 % 0 mm 69.0 W/m2 CLR
16:01 -1.6 °C -6.6 °C 34246 hPa ESE 31.1 km/h 31.1 km/h 58 % 0 mm 46.0 W/m2 FEW
16:06 -1.7 °C -6.2 °C 34246 hPa ESE 31.1 km/h 31.1 km/h 62 % 7.62 mm 47.0 W/m2 RA
16:11 -2.2 °C -5.9 °C 34256.2 hPa East 17.9 km/h 17.9 km/h 67 % 12.7 mm 56.0 W/m2 RA
16:16 -2.6 °C -6 °C 34256.2 hPa Calm     69 % 20.32 mm 76.0 W/m2 RA
16:21 -2.9 °C -6.1 °C 34256.2 hPa Calm     71 % 20.32 mm 77.0 W/m2 FEW
16:26 -3 °C -5.8 °C 34246 hPa ESE 9 km/h 9 km/h 74 % 33.02 mm 163.0 W/m2 RA
16:31 -3.2 °C -5.9 °C 34246 hPa ESE 23.8 km/h 23.8 km/h 74 % 33.02 mm 241.0 W/m2 CLR
16:36 -3.1 °C -5.7 °C 34246 hPa East 17.9 km/h 17.9 km/h 75 % 33.02 mm 728.0 W/m2 CLR
16:41 -2.9 °C -5.8 °C 34235.8 hPa SE 29.8 km/h 29.8 km/h 73 % 33.02 mm 214.0 W/m2 CLR
16:46 -2.8 °C -5.7 °C 34246 hPa South 31.1 km/h 31.1 km/h 73 % 33.02 mm 744.0 W/m2 CLR
16:51 -2.7 °C -5.8 °C 34246 hPa SE 38.8 km/h 38.8 km/h 71 % 33.02 mm 773.0 W/m2 CLR
16:56 -2.6 °C -5.7 °C 34246 hPa SE 29.8 km/h 29.8 km/h 71 % 33.02 mm 740.0 W/m2 CLR
17:01 -2.6 °C -5.9 °C 34246 hPa SE 44.7 km/h 44.7 km/h 70 % 33.02 mm 698.0 W/m2 CLR
17:06 -2.4 °C -5.6 °C 34246 hPa SE 23.8 km/h 23.8 km/h 71 % 25.4 mm 675.0 W/m2 CLR
17:11 -2.3 °C -5.8 °C 34235.8 hPa SE 32.8 km/h 32.8 km/h 69 % 20.32 mm 661.0 W/m2 CLR
17:16 -2.3 °C -5.8 °C 34235.8 hPa SE 33.6 km/h 33.6 km/h 68 % 12.7 mm 638.0 W/m2 CLR
17:21 -2.2 °C -5.8 °C 34235.8 hPa ESE 53.6 km/h 53.6 km/h 68 % 12.7 mm 622.0 W/m2 CLR
17:26 -2.2 °C -5.8 °C 34235.8 hPa ESE 32.8 km/h 32.8 km/h 68 % 0 mm 621.0 W/m2 CLR
17:31 -2.2 °C -5.7 °C 34235.8 hPa ESE 38.8 km/h 38.8 km/h 68 % 0 mm 621.0 W/m2 CLR
17:36 -2.1 °C -5.7 °C 34222.3 hPa ESE 32.8 km/h 32.8 km/h 68 % 0 mm 617.0 W/m2 CLR
17:41 -2.1 °C -5.5 °C 34222.3 hPa SSE 23.8 km/h 23.8 km/h 69 % 0 mm 578.0 W/m2 CLR
17:46 -2 °C -5.6 °C 34222.3 hPa ESE 29.8 km/h 29.8 km/h 68 % 0 mm 643.0 W/m2 CLR
17:51 -1.8 °C -5.3 °C 34222.3 hPa ESE 20.9 km/h 20.9 km/h 69 % 0 mm 603.0 W/m2 CLR
17:56 -1.8 °C -5.4 °C 34235.8 hPa ENE 20.9 km/h 20.9 km/h 68 % 0 mm 155.0 W/m2 CLR
18:01 -1.8 °C -5.3 °C 34246 hPa Calm     69 % 0 mm 241.0 W/m2 CLR
18:06 -1.6 °C -5.2 °C 34235.8 hPa East 36.2 km/h 36.2 km/h 68 % 0 mm 570.0 W/m2 CLR
18:11 -1.7 °C -5.3 °C 34235.8 hPa East 29.8 km/h 29.8 km/h 68 % 0 mm 469.0 W/m2 CLR
18:16 -1.7 °C -5.7 °C 34222.3 hPa SE 32.8 km/h 32.8 km/h 65 % 0 mm 482.0 W/m2 CLR
18:21 -1.8 °C -5.9 °C 34222.3 hPa ESE 38.8 km/h 38.8 km/h 64 % 0 mm 466.0 W/m2 CLR
18:26 -1.8 °C -5.9 °C 34235.8 hPa ESE 38.8 km/h 38.8 km/h 64 % 0 mm 445.0 W/m2 CLR
18:31 -1.7 °C -5.9 °C 34222.3 hPa ESE 29.8 km/h 29.8 km/h 64 % 0 mm 431.0 W/m2 CLR
18:36 -1.8 °C -5.9 °C 34235.8 hPa ESE 35.7 km/h 35.7 km/h 64 % 0 mm 338.0 W/m2 CLR
18:41 -1.8 °C -5.7 °C 34235.8 hPa ESE 28.5 km/h 28.5 km/h 66 % 0 mm 362.0 W/m2 CLR
18:46 -1.8 °C -5.9 °C 34235.8 hPa SE 38.8 km/h 38.8 km/h 65 % 0 mm 380.0 W/m2 CLR
18:51 -1.9 °C -5.9 °C 34235.8 hPa SE 35.7 km/h 35.7 km/h 65 % 0 mm 353.0 W/m2 CLR
18:56 -1.8 °C -5.8 °C 34235.8 hPa ESE 28.5 km/h 28.5 km/h 65 % 0 mm 338.0 W/m2 CLR
19:01 -1.7 °C -5.8 °C 34235.8 hPa SSE 26.9 km/h 26.9 km/h 64 % 0 mm 283.0 W/m2 CLR
19:06 -1.6 °C -5.9 °C 34235.8 hPa SE 29.8 km/h 29.8 km/h 63 % 0 mm 315.0 W/m2 CLR
19:11 -1.6 °C -5.9 °C 34235.8 hPa SE 29.8 km/h 29.8 km/h 63 % 0 mm 297.0 W/m2 CLR
19:16 -1.6 °C -5.9 °C 34235.8 hPa SE 26.9 km/h 26.9 km/h 63 % 0 mm 276.0 W/m2 CLR
19:21 -1.6 °C -5.9 °C 34235.8 hPa SE 32.8 km/h 32.8 km/h 63 % 0 mm 265.0 W/m2 CLR
19:26 -1.8 °C -6 °C 34235.8 hPa SE 29.8 km/h 29.8 km/h 64 % 0 mm 250.0 W/m2 CLR
19:31 -1.8 °C -6 °C 34235.8 hPa SSE 41.7 km/h 41.7 km/h 64 % 0 mm 239.0 W/m2 CLR
19:36 -1.8 °C -6 °C 34235.8 hPa SE 29.8 km/h 29.8 km/h 64 % 0 mm 225.0 W/m2 CLR
19:41 -1.8 °C -5.9 °C 34235.8 hPa SSE 20.9 km/h 20.9 km/h 64 % 0 mm 214.0 W/m2 CLR
19:46 -1.8 °C -5.9 °C 34235.8 hPa SE 26.9 km/h 26.9 km/h 64 % 0 mm 197.0 W/m2 CLR
19:51 -1.8 °C -5.9 °C 34246 hPa SE 15 km/h 15 km/h 64 % 0 mm 174.0 W/m2 CLR
19:56 -1.8 °C -5.9 °C 34246 hPa SE 23.3 km/h 23.3 km/h 64 % 0 mm 158.0 W/m2 CLR
20:01 -1.8 °C -6.1 °C 34246 hPa SE 29.8 km/h 29.8 km/h 63 % 0 mm 142.0 W/m2 CLR
20:06 -1.9 °C -6.2 °C 34246 hPa ESE 29.8 km/h 29.8 km/h 63 % 0 mm 127.0 W/m2 CLR
20:11 -1.9 °C -6.1 °C 34246 hPa SE 20.9 km/h 20.9 km/h 64 % 0 mm 111.0 W/m2 CLR
20:16 -2 °C -6.1 °C 34246 hPa ESE 23.3 km/h 23.3 km/h 64 % 0 mm 98.0 W/m2 CLR
20:21 -2 °C -6.2 °C 34246 hPa ESE 25.9 km/h 25.9 km/h 64 % 0 mm 88.0 W/m2 CLR
20:26 -2.1 °C -6.2 °C 34256.2 hPa SE 28.5 km/h 28.5 km/h 64 % 0 mm 77.0 W/m2 FEW
20:31 -2.1 °C -6.2 °C 34256.2 hPa SE 20.9 km/h 20.9 km/h 64 % 0 mm 67.0 W/m2 FEW
20:36 -2.1 °C -6.1 °C 34256.2 hPa SSE 23.8 km/h 23.8 km/h 65 % 0 mm 56.0 W/m2 SCT
20:41 -2.2 °C -6.2 °C 34256.2 hPa SSE 9 km/h 9 km/h 65 % 0 mm 47.0 W/m2 SCT
20:46 -2.2 °C -6.2 °C 34256.2 hPa SE 17.9 km/h 17.9 km/h 65 % 0 mm 40.0 W/m2 BKN
20:51 -2.3 °C -6.1 °C 34269.7 hPa Calm     66 % 0 mm 35.0 W/m2 BKN
20:57 -2.3 °C -6.2 °C 34269.7 hPa Calm     66 % 0 mm 26.0 W/m2 BKN
21:02 -2.3 °C -6.2 °C 34269.7 hPa SE 3.1 km/h   66 % 0 mm 21.0 W/m2 BKN
21:07 -2.4 °C -6.1 °C 34269.7 hPa Calm     67 % 0 mm 18.0 W/m2 BKN
21:12 -2.4 °C -6 °C 34269.7 hPa ESE 9 km/h   68 % 0 mm 14.0 W/m2 BKN
21:17 -2.6 °C -6 °C 34269.7 hPa Calm     69 % 0 mm 9.0 W/m2 BKN
21:22 -2.6 °C -6.1 °C 34279.9 hPa SE 5.1 km/h 5.1 km/h 69 % 0 mm 5.0 W/m2 BKN
21:27 -2.7 °C -6 °C 34279.9 hPa Calm     70 % 0 mm 0.0 W/m2 OVC
21:32 -2.8 °C -5.9 °C 34279.9 hPa Calm     71 % 0 mm 0.0 W/m2 OVC
21:37 -2.9 °C -5.9 °C 34293.4 hPa East 5.1 km/h 5.1 km/h 72 % 0 mm 0.0 W/m2 CLR
21:42 -3.1 °C -6 °C 34293.4 hPa SE 7.7 km/h 7.7 km/h 73 % 0 mm 0.0 W/m2 CLR
21:47 -3.2 °C -5.9 °C 34303.6 hPa SE 15 km/h 15 km/h 74 % 0 mm 0.0 W/m2 CLR
21:52 -3.3 °C -5.9 °C 34303.6 hPa SE 9 km/h 9 km/h 75 % 0 mm 0.0 W/m2 CLR
21:57 -3.3 °C -6 °C 34303.6 hPa SE 15 km/h 15 km/h 75 % 0 mm 0.0 W/m2 CLR
22:02 -3.4 °C -6 °C 34303.6 hPa SE 6 km/h   75 % 0 mm 0.0 W/m2 CLR
22:07 -3.4 °C -5.9 °C 34303.6 hPa ESE 15.6 km/h 15.6 km/h 76 % 0 mm 0.0 W/m2 CLR
22:12 -3.5 °C -6.1 °C 34303.6 hPa ESE 11.9 km/h 11.9 km/h 76 % 0 mm 0.0 W/m2 CLR
22:17 -3.6 °C -6 °C 34313.7 hPa Calm     77 % 0 mm 0.0 W/m2 CLR
22:22 -3.7 °C -6 °C 34313.7 hPa ESE 15 km/h 15 km/h 78 % 0 mm 0.0 W/m2 CLR
22:27 -3.8 °C -6.1 °C 34313.7 hPa Calm     78 % 0 mm 0.0 W/m2 CLR
22:32 -3.8 °C -6 °C 34313.7 hPa Calm     79 % 0 mm 0.0 W/m2 CLR
22:37 -3.8 °C -6 °C 34327.3 hPa Calm     79 % 0 mm 0.0 W/m2 CLR
22:42 -3.9 °C -6.1 °C 34327.3 hPa Calm     79 % 0 mm 0.0 W/m2 CLR
22:47 -3.9 °C -6.1 °C 34327.3 hPa Calm     79 % 0 mm 0.0 W/m2 CLR
22:52 -4 °C -6.2 °C 34327.3 hPa Calm     79 % 0 mm 0.0 W/m2 CLR
22:57 -4 °C -6.1 °C 34327.3 hPa Calm     80 % 0 mm 0.0 W/m2 CLR
23:02 -4.1 °C -6.1 °C 34327.3 hPa Calm     80 % 0 mm 0.0 W/m2 CLR
23:07 -4.1 °C -6.2 °C 34327.3 hPa Calm     80 % 0 mm 0.0 W/m2 CLR
23:12 -4.1 °C -6.3 °C 34337.4 hPa Calm     79 % 0 mm 0.0 W/m2 CLR
23:17 -4.1 °C -6.2 °C 34337.4 hPa Calm     79 % 0 mm 0.0 W/m2 CLR
23:22 -4.1 °C -6.3 °C 34337.4 hPa Calm     78 % 0 mm 0.0 W/m2 CLR
23:27 -4 °C -6.4 °C 34337.4 hPa Calm     77 % 0 mm 0.0 W/m2 CLR
23:32 -4 °C -6.4 °C 34337.4 hPa Calm     77 % 0 mm 0.0 W/m2 CLR
23:37 -4 °C -6.4 °C 34337.4 hPa Calm     77 % 0 mm 0.0 W/m2 CLR
23:42 -4.1 °C -6.4 °C 34337.4 hPa Calm     77 % 0 mm 0.0 W/m2 CLR
23:47 -4.1 °C -6.4 °C 34337.4 hPa Calm     77 % 0 mm 0.0 W/m2 CLR
23:52 -4.1 °C -6.4 °C 34337.4 hPa Calm     77 % 0 mm 0.0 W/m2 CLR
23:57 -4.1 °C -6.4 °C 34337.4 hPa Calm     77 % 0 mm 0.0 W/m2 CLR
Lo Temps de Massalio
Compliments of Weather Underground - 1.25 mb